sensor_id;sensor_type;location;lat;lon;timestamp;temperature;humidity
31455;DHT22;18084;53.028;8.834;2023-03-23T00:01:02;10.40;99.90
31455;DHT22;18084;53.028;8.834;2023-03-23T00:03:28;10.40;99.90
31455;DHT22;18084;53.028;8.834;2023-03-23T00:05:54;10.40;99.90
31455;DHT22;18084;53.028;8.834;2023-03-23T00:08:25;10.40;99.90
31455;DHT22;18084;53.028;8.834;2023-03-23T00:10:52;10.40;99.90
31455;DHT22;18084;53.028;8.834;2023-03-23T00:13:24;10.40;99.90
31455;DHT22;18084;53.028;8.834;2023-03-23T00:15:50;10.40;99.90
31455;DHT22;18084;53.028;8.834;2023-03-23T00:18:20;10.40;99.90
31455;DHT22;18084;53.028;8.834;2023-03-23T00:20:50;10.40;99.90
31455;DHT22;18084;53.028;8.834;2023-03-23T00:23:17;10.40;99.90
31455;DHT22;18084;53.028;8.834;2023-03-23T00:25:49;10.40;99.90
31455;DHT22;18084;53.028;8.834;2023-03-23T00:28:16;10.40;99.90
31455;DHT22;18084;53.028;8.834;2023-03-23T00:30:42;10.40;99.90
31455;DHT22;18084;53.028;8.834;2023-03-23T00:33:10;10.40;99.90
31455;DHT22;18084;53.028;8.834;2023-03-23T00:35:39;10.40;99.90
31455;DHT22;18084;53.028;8.834;2023-03-23T00:38:05;10.40;99.90
31455;DHT22;18084;53.028;8.834;2023-03-23T00:40:30;10.50;99.90
31455;DHT22;18084;53.028;8.834;2023-03-23T00:42:56;10.50;99.90
31455;DHT22;18084;53.028;8.834;2023-03-23T00:45:22;10.50;99.90
31455;DHT22;18084;53.028;8.834;2023-03-23T00:47:49;10.50;99.90
31455;DHT22;18084;53.028;8.834;2023-03-23T00:50:17;10.50;99.90
31455;DHT22;18084;53.028;8.834;2023-03-23T00:52:43;10.50;99.90
31455;DHT22;18084;53.028;8.834;2023-03-23T00:55:08;10.50;99.90
31455;DHT22;18084;53.028;8.834;2023-03-23T00:57:34;10.50;99.90
31455;DHT22;18084;53.028;8.834;2023-03-23T01:00:00;10.50;99.90
31455;DHT22;18084;53.028;8.834;2023-03-23T01:02:26;10.60;99.90
31455;DHT22;18084;53.028;8.834;2023-03-23T01:04:51;10.50;99.90
31455;DHT22;18084;53.028;8.834;2023-03-23T01:07:21;10.50;99.90
31455;DHT22;18084;53.028;8.834;2023-03-23T01:09:48;10.60;99.90
31455;DHT22;18084;53.028;8.834;2023-03-23T01:12:14;10.60;99.90
31455;DHT22;18084;53.028;8.834;2023-03-23T01:14:40;10.60;99.90
31455;DHT22;18084;53.028;8.834;2023-03-23T01:17:06;10.60;99.90
31455;DHT22;18084;53.028;8.834;2023-03-23T01:19:32;10.60;99.90
31455;DHT22;18084;53.028;8.834;2023-03-23T01:21:57;10.50;99.90
31455;DHT22;18084;53.028;8.834;2023-03-23T01:24:23;10.60;99.90
31455;DHT22;18084;53.028;8.834;2023-03-23T01:26:48;10.60;99.90
31455;DHT22;18084;53.028;8.834;2023-03-23T01:29:13;10.50;99.90
31455;DHT22;18084;53.028;8.834;2023-03-23T01:31:39;10.60;99.90
31455;DHT22;18084;53.028;8.834;2023-03-23T01:34:05;10.50;99.90
31455;DHT22;18084;53.028;8.834;2023-03-23T01:36:31;10.60;99.90
31455;DHT22;18084;53.028;8.834;2023-03-23T01:39:03;10.60;99.90
31455;DHT22;18084;53.028;8.834;2023-03-23T01:41:31;10.50;99.90
31455;DHT22;18084;53.028;8.834;2023-03-23T01:43:58;10.60;99.90
31455;DHT22;18084;53.028;8.834;2023-03-23T01:46:29;10.50;99.90
31455;DHT22;18084;53.028;8.834;2023-03-23T01:48:57;10.60;99.90
31455;DHT22;18084;53.028;8.834;2023-03-23T01:51:24;10.60;99.90
31455;DHT22;18084;53.028;8.834;2023-03-23T01:53:57;10.60;99.90
31455;DHT22;18084;53.028;8.834;2023-03-23T01:56:28;10.60;99.90
31455;DHT22;18084;53.028;8.834;2023-03-23T01:58:58;10.60;99.90
31455;DHT22;18084;53.028;8.834;2023-03-23T02:01:24;10.60;99.90
31455;DHT22;18084;53.028;8.834;2023-03-23T02:03:54;10.60;99.90
31455;DHT22;18084;53.028;8.834;2023-03-23T02:06:20;10.60;99.90
31455;DHT22;18084;53.028;8.834;2023-03-23T02:08:46;10.60;99.90
31455;DHT22;18084;53.028;8.834;2023-03-23T02:11:21;10.60;99.90
31455;DHT22;18084;53.028;8.834;2023-03-23T02:13:48;10.60;99.90
31455;DHT22;18084;53.028;8.834;2023-03-23T02:18:55;10.70;99.90
31455;DHT22;18084;53.028;8.834;2023-03-23T02:21:49;10.70;99.90
31455;DHT22;18084;53.028;8.834;2023-03-23T02:33:44;10.70;99.90
31455;DHT22;18084;53.028;8.834;2023-03-23T02:36:21;10.70;99.90
31455;DHT22;18084;53.028;8.834;2023-03-23T02:41:33;10.70;99.90
31455;DHT22;18084;53.028;8.834;2023-03-23T02:44:03;10.80;99.90
31455;DHT22;18084;53.028;8.834;2023-03-23T02:46:30;10.80;99.90
31455;DHT22;18084;53.028;8.834;2023-03-23T02:48:57;10.80;99.90
31455;DHT22;18084;53.028;8.834;2023-03-23T02:51:24;10.80;99.90
31455;DHT22;18084;53.028;8.834;2023-03-23T02:53:51;10.70;99.90
31455;DHT22;18084;53.028;8.834;2023-03-23T02:56:19;10.80;99.90
31455;DHT22;18084;53.028;8.834;2023-03-23T02:58:46;10.80;99.90
31455;DHT22;18084;53.028;8.834;2023-03-23T03:03:55;10.80;99.90
31455;DHT22;18084;53.028;8.834;2023-03-23T03:06:52;10.80;99.90
31455;DHT22;18084;53.028;8.834;2023-03-23T03:09:42;10.80;99.90
31455;DHT22;18084;53.028;8.834;2023-03-23T03:12:33;12.10;99.90
31455;DHT22;18084;53.028;8.834;2023-03-23T03:15:06;10.80;99.90
31455;DHT22;18084;53.028;8.834;2023-03-23T03:17:40;11.10;99.90
31455;DHT22;18084;53.028;8.834;2023-03-23T03:20:12;10.90;99.90
31455;DHT22;18084;53.028;8.834;2023-03-23T03:22:41;10.80;99.90
31455;DHT22;18084;53.028;8.834;2023-03-23T03:25:10;10.80;99.90
31455;DHT22;18084;53.028;8.834;2023-03-23T03:27:43;10.90;99.90
31455;DHT22;18084;53.028;8.834;2023-03-23T03:30:12;10.90;99.90
31455;DHT22;18084;53.028;8.834;2023-03-23T03:32:49;10.90;99.90
31455;DHT22;18084;53.028;8.834;2023-03-23T03:35:22;10.90;99.90
31455;DHT22;18084;53.028;8.834;2023-03-23T03:37:50;10.90;99.90
31455;DHT22;18084;53.028;8.834;2023-03-23T03:40:19;10.90;99.90
31455;DHT22;18084;53.028;8.834;2023-03-23T03:42:45;10.90;99.90
31455;DHT22;18084;53.028;8.834;2023-03-23T03:45:16;11.40;99.90
31455;DHT22;18084;53.028;8.834;2023-03-23T03:47:42;10.90;99.90
31455;DHT22;18084;53.028;8.834;2023-03-23T03:50:08;10.80;99.90
31455;DHT22;18084;53.028;8.834;2023-03-23T03:52:34;10.80;99.90
31455;DHT22;18084;53.028;8.834;2023-03-23T03:55:00;10.80;99.90
31455;DHT22;18084;53.028;8.834;2023-03-23T03:57:25;10.80;99.90
31455;DHT22;18084;53.028;8.834;2023-03-23T03:59:51;10.80;99.90
31455;DHT22;18084;53.028;8.834;2023-03-23T04:02:17;10.80;99.90
31455;DHT22;18084;53.028;8.834;2023-03-23T04:04:46;10.90;99.90
31455;DHT22;18084;53.028;8.834;2023-03-23T04:07:12;10.90;99.90
31455;DHT22;18084;53.028;8.834;2023-03-23T04:09:42;10.90;99.90
31455;DHT22;18084;53.028;8.834;2023-03-23T04:12:08;10.80;99.90
31455;DHT22;18084;53.028;8.834;2023-03-23T04:14:34;10.90;99.90
31455;DHT22;18084;53.028;8.834;2023-03-23T04:16:59;10.90;99.90
31455;DHT22;18084;53.028;8.834;2023-03-23T04:19:25;10.90;99.90
31455;DHT22;18084;53.028;8.834;2023-03-23T04:21:53;10.90;99.90
31455;DHT22;18084;53.028;8.834;2023-03-23T04:24:20;10.80;99.90
31455;DHT22;18084;53.028;8.834;2023-03-23T04:26:47;10.90;99.90
31455;DHT22;18084;53.028;8.834;2023-03-23T04:29:12;10.90;99.90
31455;DHT22;18084;53.028;8.834;2023-03-23T04:31:38;10.90;99.90
31455;DHT22;18084;53.028;8.834;2023-03-23T04:34:04;10.90;99.90
31455;DHT22;18084;53.028;8.834;2023-03-23T04:36:30;10.90;99.90
31455;DHT22;18084;53.028;8.834;2023-03-23T04:38:56;11.00;99.90
31455;DHT22;18084;53.028;8.834;2023-03-23T04:41:21;11.00;99.90
31455;DHT22;18084;53.028;8.834;2023-03-23T04:43:48;11.50;99.90
31455;DHT22;18084;53.028;8.834;2023-03-23T04:46:18;11.90;99.90
31455;DHT22;18084;53.028;8.834;2023-03-23T04:48:45;11.00;99.90
31455;DHT22;18084;53.028;8.834;2023-03-23T04:51:11;11.00;99.90
31455;DHT22;18084;53.028;8.834;2023-03-23T04:53:40;11.10;99.90
31455;DHT22;18084;53.028;8.834;2023-03-23T04:56:06;12.80;99.90
31455;DHT22;18084;53.028;8.834;2023-03-23T04:58:32;11.00;99.90
31455;DHT22;18084;53.028;8.834;2023-03-23T05:01:00;11.00;99.90
31455;DHT22;18084;53.028;8.834;2023-03-23T05:03:25;11.10;99.90
31455;DHT22;18084;53.028;8.834;2023-03-23T05:05:52;11.00;99.90
31455;DHT22;18084;53.028;8.834;2023-03-23T05:08:19;11.00;99.90
31455;DHT22;18084;53.028;8.834;2023-03-23T05:10:53;11.00;99.90
31455;DHT22;18084;53.028;8.834;2023-03-23T05:13:19;11.00;99.90
31455;DHT22;18084;53.028;8.834;2023-03-23T05:15:45;11.20;99.90
31455;DHT22;18084;53.028;8.834;2023-03-23T05:18:10;11.20;99.90
31455;DHT22;18084;53.028;8.834;2023-03-23T05:20:36;11.20;99.90
31455;DHT22;18084;53.028;8.834;2023-03-23T05:23:02;11.90;99.90
31455;DHT22;18084;53.028;8.834;2023-03-23T05:25:28;11.20;99.90
31455;DHT22;18084;53.028;8.834;2023-03-23T05:27:53;11.30;99.90
31455;DHT22;18084;53.028;8.834;2023-03-23T05:30:19;11.30;99.90
31455;DHT22;18084;53.028;8.834;2023-03-23T05:32:47;11.40;99.90
31455;DHT22;18084;53.028;8.834;2023-03-23T05:35:17;11.40;99.90
31455;DHT22;18084;53.028;8.834;2023-03-23T05:37:43;11.40;99.90
31455;DHT22;18084;53.028;8.834;2023-03-23T05:40:10;11.40;99.90
31455;DHT22;18084;53.028;8.834;2023-03-23T05:42:37;11.40;99.90
31455;DHT22;18084;53.028;8.834;2023-03-23T05:45:04;11.40;99.90
31455;DHT22;18084;53.028;8.834;2023-03-23T05:47:30;11.40;99.90
31455;DHT22;18084;53.028;8.834;2023-03-23T05:49:56;11.30;99.90
31455;DHT22;18084;53.028;8.834;2023-03-23T05:52:22;11.40;99.90
31455;DHT22;18084;53.028;8.834;2023-03-23T05:54:49;11.30;99.90
31455;DHT22;18084;53.028;8.834;2023-03-23T05:57:15;11.30;99.90
31455;DHT22;18084;53.028;8.834;2023-03-23T05:59:40;11.30;99.90
31455;DHT22;18084;53.028;8.834;2023-03-23T06:02:06;11.20;99.90
31455;DHT22;18084;53.028;8.834;2023-03-23T06:04:31;11.20;99.90
31455;DHT22;18084;53.028;8.834;2023-03-23T06:07:00;11.30;99.90
31455;DHT22;18084;53.028;8.834;2023-03-23T06:09:26;11.40;99.90
31455;DHT22;18084;53.028;8.834;2023-03-23T06:11:52;11.40;99.90
31455;DHT22;18084;53.028;8.834;2023-03-23T06:14:17;11.50;99.90
31455;DHT22;18084;53.028;8.834;2023-03-23T06:16:43;11.40;99.90
31455;DHT22;18084;53.028;8.834;2023-03-23T06:19:08;11.50;99.90
31455;DHT22;18084;53.028;8.834;2023-03-23T06:21:34;11.50;99.90
31455;DHT22;18084;53.028;8.834;2023-03-23T06:23:59;11.50;99.90
31455;DHT22;18084;53.028;8.834;2023-03-23T06:26:32;11.50;99.90
31455;DHT22;18084;53.028;8.834;2023-03-23T06:28:58;11.60;99.90
31455;DHT22;18084;53.028;8.834;2023-03-23T06:31:24;11.60;99.90
31455;DHT22;18084;53.028;8.834;2023-03-23T06:33:50;11.60;99.90
31455;DHT22;18084;53.028;8.834;2023-03-23T06:36:16;11.60;99.90
31455;DHT22;18084;53.028;8.834;2023-03-23T06:38:42;11.70;99.90
31455;DHT22;18084;53.028;8.834;2023-03-23T06:41:07;11.80;99.90
31455;DHT22;18084;53.028;8.834;2023-03-23T06:43:33;11.80;99.90
31455;DHT22;18084;53.028;8.834;2023-03-23T06:46:01;11.80;99.90
31455;DHT22;18084;53.028;8.834;2023-03-23T06:48:26;11.80;99.90
31455;DHT22;18084;53.028;8.834;2023-03-23T06:50:52;11.90;99.90
31455;DHT22;18084;53.028;8.834;2023-03-23T06:53:18;11.80;99.90
31455;DHT22;18084;53.028;8.834;2023-03-23T06:55:45;12.50;99.90
31455;DHT22;18084;53.028;8.834;2023-03-23T06:58:12;11.90;99.90
31455;DHT22;18084;53.028;8.834;2023-03-23T07:00:37;11.80;99.90
31455;DHT22;18084;53.028;8.834;2023-03-23T07:03:04;11.80;99.90
31455;DHT22;18084;53.028;8.834;2023-03-23T07:05:30;11.70;99.90
31455;DHT22;18084;53.028;8.834;2023-03-23T07:07:55;11.70;99.90
31455;DHT22;18084;53.028;8.834;2023-03-23T07:10:21;11.80;99.90
31455;DHT22;18084;53.028;8.834;2023-03-23T07:12:47;12.00;99.90
31455;DHT22;18084;53.028;8.834;2023-03-23T07:15:12;12.10;99.90
31455;DHT22;18084;53.028;8.834;2023-03-23T07:17:39;13.80;99.90
31455;DHT22;18084;53.028;8.834;2023-03-23T07:20:06;12.40;99.90
31455;DHT22;18084;53.028;8.834;2023-03-23T07:22:32;12.50;99.90
31455;DHT22;18084;53.028;8.834;2023-03-23T07:24:58;12.50;99.90
31455;DHT22;18084;53.028;8.834;2023-03-23T07:27:24;12.50;99.90
31455;DHT22;18084;53.028;8.834;2023-03-23T07:29:49;12.30;99.90
31455;DHT22;18084;53.028;8.834;2023-03-23T07:32:15;12.10;99.90
31455;DHT22;18084;53.028;8.834;2023-03-23T07:34:41;11.90;99.90
31455;DHT22;18084;53.028;8.834;2023-03-23T07:37:07;11.70;99.90
31455;DHT22;18084;53.028;8.834;2023-03-23T07:39:32;11.60;99.90
31455;DHT22;18084;53.028;8.834;2023-03-23T07:41:58;11.30;99.90
31455;DHT22;18084;53.028;8.834;2023-03-23T07:44:24;11.30;99.90
31455;DHT22;18084;53.028;8.834;2023-03-23T07:46:49;12.50;99.90
31455;DHT22;18084;53.028;8.834;2023-03-23T07:49:16;11.10;99.90
31455;DHT22;18084;53.028;8.834;2023-03-23T07:51:42;11.00;99.90
31455;DHT22;18084;53.028;8.834;2023-03-23T07:54:08;10.90;99.90
31455;DHT22;18084;53.028;8.834;2023-03-23T07:56:34;10.80;99.90
31455;DHT22;18084;53.028;8.834;2023-03-23T07:59:00;11.40;99.90
31455;DHT22;18084;53.028;8.834;2023-03-23T08:01:26;10.70;99.90
31455;DHT22;18084;53.028;8.834;2023-03-23T08:03:52;10.70;99.90
31455;DHT22;18084;53.028;8.834;2023-03-23T08:06:20;10.70;99.90
31455;DHT22;18084;53.028;8.834;2023-03-23T08:08:46;10.70;99.90
31455;DHT22;18084;53.028;8.834;2023-03-23T08:11:12;10.70;99.90
31455;DHT22;18084;53.028;8.834;2023-03-23T08:13:40;10.60;99.90
31455;DHT22;18084;53.028;8.834;2023-03-23T08:16:07;10.60;99.90
31455;DHT22;18084;53.028;8.834;2023-03-23T08:18:34;10.50;99.90
31455;DHT22;18084;53.028;8.834;2023-03-23T08:21:00;11.60;99.90
31455;DHT22;18084;53.028;8.834;2023-03-23T08:23:26;10.40;99.90
31455;DHT22;18084;53.028;8.834;2023-03-23T08:25:51;10.50;99.90
31455;DHT22;18084;53.028;8.834;2023-03-23T08:28:17;10.50;99.90
31455;DHT22;18084;53.028;8.834;2023-03-23T08:30:42;10.50;99.90
31455;DHT22;18084;53.028;8.834;2023-03-23T08:33:08;10.50;99.90
31455;DHT22;18084;53.028;8.834;2023-03-23T08:35:35;10.40;99.90
31455;DHT22;18084;53.028;8.834;2023-03-23T08:38:02;10.60;99.90
31455;DHT22;18084;53.028;8.834;2023-03-23T08:40:28;10.30;99.90
31455;DHT22;18084;53.028;8.834;2023-03-23T08:42:54;10.40;99.90
31455;DHT22;18084;53.028;8.834;2023-03-23T08:45:22;10.40;99.90
31455;DHT22;18084;53.028;8.834;2023-03-23T08:47:48;12.10;99.90
31455;DHT22;18084;53.028;8.834;2023-03-23T08:50:18;10.40;99.90
31455;DHT22;18084;53.028;8.834;2023-03-23T08:52:45;10.50;99.90
31455;DHT22;18084;53.028;8.834;2023-03-23T08:55:11;10.70;99.90
31455;DHT22;18084;53.028;8.834;2023-03-23T08:57:37;12.40;99.90
31455;DHT22;18084;53.028;8.834;2023-03-23T09:00:05;11.00;99.90
31455;DHT22;18084;53.028;8.834;2023-03-23T09:02:38;11.00;99.90
31455;DHT22;18084;53.028;8.834;2023-03-23T09:05:04;11.00;99.90
31455;DHT22;18084;53.028;8.834;2023-03-23T09:07:30;11.10;99.90
31455;DHT22;18084;53.028;8.834;2023-03-23T09:09:55;11.10;99.90
31455;DHT22;18084;53.028;8.834;2023-03-23T09:12:21;11.20;99.90
31455;DHT22;18084;53.028;8.834;2023-03-23T09:14:46;11.20;99.90
31455;DHT22;18084;53.028;8.834;2023-03-23T09:17:12;11.30;99.90
31455;DHT22;18084;53.028;8.834;2023-03-23T09:19:37;11.20;99.90
31455;DHT22;18084;53.028;8.834;2023-03-23T09:22:03;11.20;99.90
31455;DHT22;18084;53.028;8.834;2023-03-23T09:24:29;11.10;99.90
31455;DHT22;18084;53.028;8.834;2023-03-23T09:26:55;11.10;99.90
31455;DHT22;18084;53.028;8.834;2023-03-23T09:29:20;11.00;99.90
31455;DHT22;18084;53.028;8.834;2023-03-23T09:31:46;11.00;99.90
31455;DHT22;18084;53.028;8.834;2023-03-23T09:34:12;11.00;99.90
31455;DHT22;18084;53.028;8.834;2023-03-23T09:36:38;11.00;99.90
31455;DHT22;18084;53.028;8.834;2023-03-23T09:39:05;12.30;99.90
31455;DHT22;18084;53.028;8.834;2023-03-23T09:41:59;11.00;99.90
31455;DHT22;18084;53.028;8.834;2023-03-23T09:47:38;11.00;99.90
31455;DHT22;18084;53.028;8.834;2023-03-23T09:50:11;11.00;99.90
31455;DHT22;18084;53.028;8.834;2023-03-23T09:52:39;11.10;99.90
31455;DHT22;18084;53.028;8.834;2023-03-23T09:55:11;11.20;99.90
31455;DHT22;18084;53.028;8.834;2023-03-23T09:57:55;12.10;99.90
31455;DHT22;18084;53.028;8.834;2023-03-23T10:00:31;11.30;99.90
31455;DHT22;18084;53.028;8.834;2023-03-23T10:03:17;11.50;99.90
31455;DHT22;18084;53.028;8.834;2023-03-23T10:05:51;11.60;99.90
31455;DHT22;18084;53.028;8.834;2023-03-23T10:08:26;12.40;99.90
31455;DHT22;18084;53.028;8.834;2023-03-23T10:11:09;11.90;99.90
31455;DHT22;18084;53.028;8.834;2023-03-23T10:13:59;11.90;99.90
31455;DHT22;18084;53.028;8.834;2023-03-23T10:16:31;11.90;99.90
31455;DHT22;18084;53.028;8.834;2023-03-23T10:19:10;11.90;99.90
31455;DHT22;18084;53.028;8.834;2023-03-23T10:21:41;11.90;99.90
31455;DHT22;18084;53.028;8.834;2023-03-23T10:24:10;11.90;99.90
31455;DHT22;18084;53.028;8.834;2023-03-23T10:29:50;11.90;99.90
31455;DHT22;18084;53.028;8.834;2023-03-23T10:32:21;11.90;99.90
31455;DHT22;18084;53.028;8.834;2023-03-23T10:34:53;12.00;99.90
31455;DHT22;18084;53.028;8.834;2023-03-23T10:37:25;12.10;99.90
31455;DHT22;18084;53.028;8.834;2023-03-23T10:39:59;12.10;99.90
31455;DHT22;18084;53.028;8.834;2023-03-23T10:42:33;12.20;99.90
31455;DHT22;18084;53.028;8.834;2023-03-23T10:45:09;12.20;99.90
31455;DHT22;18084;53.028;8.834;2023-03-23T10:47:39;12.10;99.90
31455;DHT22;18084;53.028;8.834;2023-03-23T10:50:06;12.10;99.90
31455;DHT22;18084;53.028;8.834;2023-03-23T10:52:39;12.20;99.90
31455;DHT22;18084;53.028;8.834;2023-03-23T10:55:12;12.30;99.90
31455;DHT22;18084;53.028;8.834;2023-03-23T10:57:42;12.40;99.90
31455;DHT22;18084;53.028;8.834;2023-03-23T11:02:47;12.70;99.90
31455;DHT22;18084;53.028;8.834;2023-03-23T11:05:23;12.60;99.90
31455;DHT22;18084;53.028;8.834;2023-03-23T11:07:53;12.50;99.90
31455;DHT22;18084;53.028;8.834;2023-03-23T11:10:27;13.90;99.90
31455;DHT22;18084;53.028;8.834;2023-03-23T11:12:57;12.50;99.90
31455;DHT22;18084;53.028;8.834;2023-03-23T11:15:33;12.60;99.90
31455;DHT22;18084;53.028;8.834;2023-03-23T11:18:12;12.60;99.90
31455;DHT22;18084;53.028;8.834;2023-03-23T11:20:41;12.60;99.90
31455;DHT22;18084;53.028;8.834;2023-03-23T11:23:20;12.60;99.90
31455;DHT22;18084;53.028;8.834;2023-03-23T11:25:55;12.60;99.90
31455;DHT22;18084;53.028;8.834;2023-03-23T11:28:22;12.60;99.90
31455;DHT22;18084;53.028;8.834;2023-03-23T11:30:53;12.70;99.90
31455;DHT22;18084;53.028;8.834;2023-03-23T11:33:19;12.60;99.90
31455;DHT22;18084;53.028;8.834;2023-03-23T11:35:45;12.60;99.90
31455;DHT22;18084;53.028;8.834;2023-03-23T11:38:18;12.50;99.90
31455;DHT22;18084;53.028;8.834;2023-03-23T11:40:49;12.50;99.90
31455;DHT22;18084;53.028;8.834;2023-03-23T11:43:22;12.60;99.90
31455;DHT22;18084;53.028;8.834;2023-03-23T11:46:01;12.50;99.90
31455;DHT22;18084;53.028;8.834;2023-03-23T11:48:44;12.60;99.90
31455;DHT22;18084;53.028;8.834;2023-03-23T11:51:26;12.70;99.90
31455;DHT22;18084;53.028;8.834;2023-03-23T11:54:13;13.00;99.90
31455;DHT22;18084;53.028;8.834;2023-03-23T11:56:43;13.50;99.90
31455;DHT22;18084;53.028;8.834;2023-03-23T11:59:12;13.70;99.90
31455;DHT22;18084;53.028;8.834;2023-03-23T12:04:40;13.60;99.90
31455;DHT22;18084;53.028;8.834;2023-03-23T12:07:14;13.50;99.90
31455;DHT22;18084;53.028;8.834;2023-03-23T12:10:46;13.80;99.90
31455;DHT22;18084;53.028;8.834;2023-03-23T12:13:10;14.20;99.90
31455;DHT22;18084;53.028;8.834;2023-03-23T12:21:31;14.00;99.90
31455;DHT22;18084;53.028;8.834;2023-03-23T12:24:18;14.00;99.90
31455;DHT22;18084;53.028;8.834;2023-03-23T12:26:53;14.00;99.90
31455;DHT22;18084;53.028;8.834;2023-03-23T12:32:40;14.30;99.90
31455;DHT22;18084;53.028;8.834;2023-03-23T12:38:30;14.40;99.90
31455;DHT22;18084;53.028;8.834;2023-03-23T12:43:48;14.40;96.60
31455;DHT22;18084;53.028;8.834;2023-03-23T12:49:26;14.60;99.00
31455;DHT22;18084;53.028;8.834;2023-03-23T12:52:00;14.60;93.30
31455;DHT22;18084;53.028;8.834;2023-03-23T12:55:37;14.90;96.30
31455;DHT22;18084;53.028;8.834;2023-03-23T12:58:05;15.10;93.90
31455;DHT22;18084;53.028;8.834;2023-03-23T13:00:55;15.10;44.40
31455;DHT22;18084;53.028;8.834;2023-03-23T13:06:09;15.20;28.20
31455;DHT22;18084;53.028;8.834;2023-03-23T13:08:41;15.10;32.60
31455;DHT22;18084;53.028;8.834;2023-03-23T13:11:15;14.90;38.40
31455;DHT22;18084;53.028;8.834;2023-03-23T13:16:20;14.70;37.30
31455;DHT22;18084;53.028;8.834;2023-03-23T13:19:06;14.90;20.10
31455;DHT22;18084;53.028;8.834;2023-03-23T13:24:13;15.10;1.00
31455;DHT22;18084;53.028;8.834;2023-03-23T13:26:41;15.20;9.70
31455;DHT22;18084;53.028;8.834;2023-03-23T13:29:15;15.30;11.00
31455;DHT22;18084;53.028;8.834;2023-03-23T13:31:43;15.40;4.30
31455;DHT22;18084;53.028;8.834;2023-03-23T13:34:21;15.50;1.00
31455;DHT22;18084;53.028;8.834;2023-03-23T13:36:56;15.60;1.00
31455;DHT22;18084;53.028;8.834;2023-03-23T13:40:17;15.60;1.00
31455;DHT22;18084;53.028;8.834;2023-03-23T13:42:26;15.60;1.00
31455;DHT22;18084;53.028;8.834;2023-03-23T13:45:04;15.20;1.00
31455;DHT22;18084;53.028;8.834;2023-03-23T13:47:37;15.20;1.00
31455;DHT22;18084;53.028;8.834;2023-03-23T13:55:29;15.40;1.00
31455;DHT22;18084;53.028;8.834;2023-03-23T14:03:19;15.00;1.00
31455;DHT22;18084;53.028;8.834;2023-03-23T14:11:12;14.10;1.00
31455;DHT22;18084;53.028;8.834;2023-03-23T14:16:44;13.30;1.00
31455;DHT22;18084;53.028;8.834;2023-03-23T14:19:24;12.90;70.60
31455;DHT22;18084;53.028;8.834;2023-03-23T14:22:01;12.40;98.60
31455;DHT22;18084;53.028;8.834;2023-03-23T14:24:32;12.20;99.90
31455;DHT22;18084;53.028;8.834;2023-03-23T14:27:09;12.00;99.90
31455;DHT22;18084;53.028;8.834;2023-03-23T14:29:36;12.10;99.90
31455;DHT22;18084;53.028;8.834;2023-03-23T14:32:01;12.90;99.90
31455;DHT22;18084;53.028;8.834;2023-03-23T14:34:30;12.60;99.90
31455;DHT22;18084;53.028;8.834;2023-03-23T14:36:57;12.90;99.90
31455;DHT22;18084;53.028;8.834;2023-03-23T14:39:31;13.20;94.40
31455;DHT22;18084;53.028;8.834;2023-03-23T14:42:03;13.40;88.70
31455;DHT22;18084;53.028;8.834;2023-03-23T14:44:33;13.60;86.50
31455;DHT22;18084;53.028;8.834;2023-03-23T14:47:09;15.40;58.10
31455;DHT22;18084;53.028;8.834;2023-03-23T14:49:38;13.90;33.90
31455;DHT22;18084;53.028;8.834;2023-03-23T14:52:10;14.00;40.00
31455;DHT22;18084;53.028;8.834;2023-03-23T14:54:37;14.00;38.00
31455;DHT22;18084;53.028;8.834;2023-03-23T14:57:18;14.20;30.80
31455;DHT22;18084;53.028;8.834;2023-03-23T14:59:47;14.40;4.00
31455;DHT22;18084;53.028;8.834;2023-03-23T15:02:25;14.70;1.00
31455;DHT22;18084;53.028;8.834;2023-03-23T15:05:19;15.00;1.00
31455;DHT22;18084;53.028;8.834;2023-03-23T15:07:47;15.70;1.00
31455;DHT22;18084;53.028;8.834;2023-03-23T15:10:18;15.20;1.00
31455;DHT22;18084;53.028;8.834;2023-03-23T15:12:46;15.10;1.00
31455;DHT22;18084;53.028;8.834;2023-03-23T15:15:33;15.20;1.00
31455;DHT22;18084;53.028;8.834;2023-03-23T15:18:00;15.20;1.00
31455;DHT22;18084;53.028;8.834;2023-03-23T15:20:32;15.10;1.00
31455;DHT22;18084;53.028;8.834;2023-03-23T15:23:13;15.20;1.00
31455;DHT22;18084;53.028;8.834;2023-03-23T15:25:48;15.20;1.00
31455;DHT22;18084;53.028;8.834;2023-03-23T15:28:28;15.20;1.00
31455;DHT22;18084;53.028;8.834;2023-03-23T15:30:57;15.20;1.00
31455;DHT22;18084;53.028;8.834;2023-03-23T15:33:26;15.10;1.00
31455;DHT22;18084;53.028;8.834;2023-03-23T15:35:56;15.10;1.00
31455;DHT22;18084;53.028;8.834;2023-03-23T15:38:29;15.20;1.00
31455;DHT22;18084;53.028;8.834;2023-03-23T15:40:57;15.10;1.00
31455;DHT22;18084;53.028;8.834;2023-03-23T15:43:26;15.00;1.00
31455;DHT22;18084;53.028;8.834;2023-03-23T15:46:04;14.90;1.00
31455;DHT22;18084;53.028;8.834;2023-03-23T15:51:16;14.80;1.00
31455;DHT22;18084;53.028;8.834;2023-03-23T15:53:42;14.70;1.00
31455;DHT22;18084;53.028;8.834;2023-03-23T15:56:10;14.70;1.00
31455;DHT22;18084;53.028;8.834;2023-03-23T15:58:37;14.50;1.00
31455;DHT22;18084;53.028;8.834;2023-03-23T16:01:27;14.50;1.00
31455;DHT22;18084;53.028;8.834;2023-03-23T16:03:59;14.40;1.00
31455;DHT22;18084;53.028;8.834;2023-03-23T16:06:27;14.40;1.00
31455;DHT22;18084;53.028;8.834;2023-03-23T16:08:55;14.30;1.00
31455;DHT22;18084;53.028;8.834;2023-03-23T16:11:22;14.40;1.00
31455;DHT22;18084;53.028;8.834;2023-03-23T16:13:49;14.40;1.00
31455;DHT22;18084;53.028;8.834;2023-03-23T16:16:36;14.30;1.00
31455;DHT22;18084;53.028;8.834;2023-03-23T16:19:02;14.20;1.00
31455;DHT22;18084;53.028;8.834;2023-03-23T16:21:28;14.00;1.00
31455;DHT22;18084;53.028;8.834;2023-03-23T16:23:54;14.00;1.00
31455;DHT22;18084;53.028;8.834;2023-03-23T16:26:20;13.80;1.00
31455;DHT22;18084;53.028;8.834;2023-03-23T16:28:47;13.80;1.00
31455;DHT22;18084;53.028;8.834;2023-03-23T16:31:12;13.60;1.00
31455;DHT22;18084;53.028;8.834;2023-03-23T16:33:38;13.60;1.00
31455;DHT22;18084;53.028;8.834;2023-03-23T16:36:04;13.50;1.00
31455;DHT22;18084;53.028;8.834;2023-03-23T16:38:29;13.40;1.00
31455;DHT22;18084;53.028;8.834;2023-03-23T16:40:55;13.40;1.00
31455;DHT22;18084;53.028;8.834;2023-03-23T16:43:21;13.40;1.00
31455;DHT22;18084;53.028;8.834;2023-03-23T16:45:46;13.40;1.80
31455;DHT22;18084;53.028;8.834;2023-03-23T16:48:14;13.30;9.40
31455;DHT22;18084;53.028;8.834;2023-03-23T16:50:41;13.30;16.10
31455;DHT22;18084;53.028;8.834;2023-03-23T16:53:07;13.40;13.40
31455;DHT22;18084;53.028;8.834;2023-03-23T16:55:34;13.30;24.70
31455;DHT22;18084;53.028;8.834;2023-03-23T16:58:00;13.20;21.60
31455;DHT22;18084;53.028;8.834;2023-03-23T17:00:26;13.10;26.10
31455;DHT22;18084;53.028;8.834;2023-03-23T17:02:52;13.00;31.20
31455;DHT22;18084;53.028;8.834;2023-03-23T17:05:19;13.00;30.90